sensor_id;sensor_type;location;lat;lon;timestamp;P1;durP1;ratioP1;P2;durP2;ratioP2
6997;SDS011;3539;47.982;12.238;2023-12-14T00:02:07;2.70;;;2.50;;
6997;SDS011;3539;47.982;12.238;2023-12-14T00:04:34;2.93;;;2.63;;
6997;SDS011;3539;47.982;12.238;2023-12-14T00:07:02;3.10;;;2.80;;
6997;SDS011;3539;47.982;12.238;2023-12-14T00:09:29;3.67;;;3.33;;
6997;SDS011;3539;47.982;12.238;2023-12-14T00:11:56;3.23;;;2.93;;
6997;SDS011;3539;47.982;12.238;2023-12-14T00:14:22;3.27;;;2.97;;
6997;SDS011;3539;47.982;12.238;2023-12-14T00:16:49;3.37;;;3.07;;
6997;SDS011;3539;47.982;12.238;2023-12-14T00:19:16;4.10;;;3.43;;
6997;SDS011;3539;47.982;12.238;2023-12-14T00:21:43;4.57;;;3.17;;
6997;SDS011;3539;47.982;12.238;2023-12-14T00:24:11;3.60;;;3.30;;
6997;SDS011;3539;47.982;12.238;2023-12-14T00:26:37;3.67;;;3.13;;
6997;SDS011;3539;47.982;12.238;2023-12-14T00:29:04;4.50;;;3.87;;
6997;SDS011;3539;47.982;12.238;2023-12-14T00:31:31;3.90;;;3.37;;
6997;SDS011;3539;47.982;12.238;2023-12-14T00:33:58;4.03;;;3.53;;
6997;SDS011;3539;47.982;12.238;2023-12-14T00:36:24;3.40;;;3.10;;
6997;SDS011;3539;47.982;12.238;2023-12-14T00:38:51;3.87;;;3.57;;
6997;SDS011;3539;47.982;12.238;2023-12-14T00:41:19;3.53;;;3.23;;
6997;SDS011;3539;47.982;12.238;2023-12-14T00:43:46;4.17;;;3.23;;
6997;SDS011;3539;47.982;12.238;2023-12-14T00:46:13;3.37;;;2.83;;
6997;SDS011;3539;47.982;12.238;2023-12-14T00:48:39;3.17;;;2.80;;
6997;SDS011;3539;47.982;12.238;2023-12-14T00:51:06;3.47;;;3.13;;
6997;SDS011;3539;47.982;12.238;2023-12-14T00:53:33;3.37;;;3.07;;
6997;SDS011;3539;47.982;12.238;2023-12-14T00:55:59;2.70;;;2.50;;
6997;SDS011;3539;47.982;12.238;2023-12-14T00:58:28;3.40;;;2.63;;
6997;SDS011;3539;47.982;12.238;2023-12-14T01:00:54;2.40;;;2.20;;
6997;SDS011;3539;47.982;12.238;2023-12-14T01:03:21;4.03;;;2.40;;
6997;SDS011;3539;47.982;12.238;2023-12-14T01:05:48;2.23;;;2.03;;
6997;SDS011;3539;47.982;12.238;2023-12-14T01:08:14;2.03;;;1.90;;
6997;SDS011;3539;47.982;12.238;2023-12-14T01:10:41;2.00;;;1.80;;
6997;SDS011;3539;47.982;12.238;2023-12-14T01:13:08;2.23;;;2.00;;
6997;SDS011;3539;47.982;12.238;2023-12-14T01:15:36;2.90;;;2.57;;
6997;SDS011;3539;47.982;12.238;2023-12-14T01:18:03;2.57;;;2.30;;
6997;SDS011;3539;47.982;12.238;2023-12-14T01:20:30;2.27;;;2.07;;
6997;SDS011;3539;47.982;12.238;2023-12-14T01:22:56;2.27;;;2.07;;
6997;SDS011;3539;47.982;12.238;2023-12-14T01:25:23;2.27;;;1.67;;
6997;SDS011;3539;47.982;12.238;2023-12-14T01:27:50;2.13;;;1.77;;
6997;SDS011;3539;47.982;12.238;2023-12-14T01:30:17;2.03;;;1.73;;
6997;SDS011;3539;47.982;12.238;2023-12-14T01:32:45;2.10;;;1.67;;
6997;SDS011;3539;47.982;12.238;2023-12-14T01:35:11;1.80;;;1.70;;
6997;SDS011;3539;47.982;12.238;2023-12-14T01:37:38;1.83;;;1.70;;
6997;SDS011;3539;47.982;12.238;2023-12-14T01:40:05;2.63;;;1.60;;
6997;SDS011;3539;47.982;12.238;2023-12-14T01:42:33;2.47;;;1.87;;
6997;SDS011;3539;47.982;12.238;2023-12-14T01:44:59;1.60;;;1.50;;
6997;SDS011;3539;47.982;12.238;2023-12-14T01:47:26;1.90;;;1.70;;
6997;SDS011;3539;47.982;12.238;2023-12-14T01:49:54;1.70;;;1.60;;
6997;SDS011;3539;47.982;12.238;2023-12-14T01:52:21;1.93;;;1.50;;
6997;SDS011;3539;47.982;12.238;2023-12-14T01:54:48;1.50;;;1.40;;
6997;SDS011;3539;47.982;12.238;2023-12-14T01:57:14;1.67;;;1.57;;
6997;SDS011;3539;47.982;12.238;2023-12-14T01:59:41;1.60;;;1.50;;
6997;SDS011;3539;47.982;12.238;2023-12-14T02:02:08;1.60;;;1.50;;
6997;SDS011;3539;47.982;12.238;2023-12-14T02:04:35;1.43;;;1.33;;
6997;SDS011;3539;47.982;12.238;2023-12-14T02:07:04;1.60;;;1.50;;
6997;SDS011;3539;47.982;12.238;2023-12-14T02:09:30;1.70;;;1.60;;
6997;SDS011;3539;47.982;12.238;2023-12-14T02:11:57;1.83;;;1.60;;
6997;SDS011;3539;47.982;12.238;2023-12-14T02:14:24;1.90;;;1.53;;
6997;SDS011;3539;47.982;12.238;2023-12-14T02:16:50;1.67;;;1.57;;
6997;SDS011;3539;47.982;12.238;2023-12-14T02:19:17;1.90;;;1.30;;
6997;SDS011;3539;47.982;12.238;2023-12-14T02:21:44;1.50;;;1.40;;
6997;SDS011;3539;47.982;12.238;2023-12-14T02:24:12;1.37;;;1.27;;
6997;SDS011;3539;47.982;12.238;2023-12-14T02:26:39;1.40;;;1.30;;
6997;SDS011;3539;47.982;12.238;2023-12-14T02:29:05;1.67;;;1.43;;
6997;SDS011;3539;47.982;12.238;2023-12-14T02:31:32;1.43;;;1.30;;
6997;SDS011;3539;47.982;12.238;2023-12-14T02:33:59;1.20;;;1.10;;
6997;SDS011;3539;47.982;12.238;2023-12-14T02:36:26;2.10;;;1.17;;
6997;SDS011;3539;47.982;12.238;2023-12-14T02:38:52;1.63;;;1.40;;
6997;SDS011;3539;47.982;12.238;2023-12-14T02:41:20;1.57;;;1.27;;
6997;SDS011;3539;47.982;12.238;2023-12-14T02:43:47;1.67;;;1.30;;
6997;SDS011;3539;47.982;12.238;2023-12-14T02:46:14;1.20;;;1.03;;
6997;SDS011;3539;47.982;12.238;2023-12-14T02:48:41;1.40;;;1.30;;
6997;SDS011;3539;47.982;12.238;2023-12-14T02:51:11;2.03;;;1.20;;
6997;SDS011;3539;47.982;12.238;2023-12-14T02:53:39;1.37;;;1.27;;
6997;SDS011;3539;47.982;12.238;2023-12-14T02:56:06;1.60;;;1.50;;
6997;SDS011;3539;47.982;12.238;2023-12-14T02:58:36;1.50;;;1.40;;
6997;SDS011;3539;47.982;12.238;2023-12-14T03:01:03;1.47;;;1.37;;
6997;SDS011;3539;47.982;12.238;2023-12-14T03:03:30;1.40;;;1.30;;
6997;SDS011;3539;47.982;12.238;2023-12-14T03:05:57;3.90;;;1.50;;
6997;SDS011;3539;47.982;12.238;2023-12-14T03:08:23;1.40;;;1.30;;
6997;SDS011;3539;47.982;12.238;2023-12-14T03:10:50;2.07;;;1.37;;
6997;SDS011;3539;47.982;12.238;2023-12-14T03:13:17;2.07;;;1.53;;
6997;SDS011;3539;47.982;12.238;2023-12-14T03:15:45;2.27;;;1.30;;
6997;SDS011;3539;47.982;12.238;2023-12-14T03:18:14;1.30;;;1.20;;
6997;SDS011;3539;47.982;12.238;2023-12-14T03:20:40;2.77;;;1.80;;
6997;SDS011;3539;47.982;12.238;2023-12-14T03:23:07;2.23;;;1.60;;
6997;SDS011;3539;47.982;12.238;2023-12-14T03:25:34;1.73;;;1.63;;
6997;SDS011;3539;47.982;12.238;2023-12-14T03:28:01;1.90;;;1.80;;
6997;SDS011;3539;47.982;12.238;2023-12-14T03:30:27;1.90;;;1.80;;
6997;SDS011;3539;47.982;12.238;2023-12-14T03:32:55;2.10;;;1.77;;
6997;SDS011;3539;47.982;12.238;2023-12-14T03:35:22;3.23;;;2.00;;
6997;SDS011;3539;47.982;12.238;2023-12-14T03:37:49;1.70;;;1.60;;
6997;SDS011;3539;47.982;12.238;2023-12-14T03:40:16;2.43;;;1.87;;
6997;SDS011;3539;47.982;12.238;2023-12-14T03:42:43;2.10;;;1.80;;
6997;SDS011;3539;47.982;12.238;2023-12-14T03:45:10;2.37;;;1.83;;
6997;SDS011;3539;47.982;12.238;2023-12-14T03:47:37;3.10;;;2.00;;
6997;SDS011;3539;47.982;12.238;2023-12-14T03:50:06;2.00;;;1.80;;
6997;SDS011;3539;47.982;12.238;2023-12-14T03:52:34;3.40;;;1.83;;
6997;SDS011;3539;47.982;12.238;2023-12-14T03:55:01;2.10;;;1.90;;
6997;SDS011;3539;47.982;12.238;2023-12-14T03:57:27;1.87;;;1.77;;
6997;SDS011;3539;47.982;12.238;2023-12-14T03:59:54;2.77;;;1.93;;
6997;SDS011;3539;47.982;12.238;2023-12-14T04:02:22;4.37;;;2.30;;
6997;SDS011;3539;47.982;12.238;2023-12-14T04:04:48;2.93;;;2.30;;
6997;SDS011;3539;47.982;12.238;2023-12-14T04:07:17;2.40;;;2.20;;
6997;SDS011;3539;47.982;12.238;2023-12-14T04:09:44;3.03;;;2.33;;
6997;SDS011;3539;47.982;12.238;2023-12-14T04:12:13;2.77;;;2.30;;
6997;SDS011;3539;47.982;12.238;2023-12-14T04:14:40;2.30;;;2.10;;
6997;SDS011;3539;47.982;12.238;2023-12-14T04:17:08;2.40;;;2.13;;
6997;SDS011;3539;47.982;12.238;2023-12-14T04:19:35;2.40;;;2.20;;
6997;SDS011;3539;47.982;12.238;2023-12-14T04:22:01;2.50;;;2.30;;
6997;SDS011;3539;47.982;12.238;2023-12-14T04:24:30;2.60;;;2.40;;
6997;SDS011;3539;47.982;12.238;2023-12-14T04:26:56;2.50;;;2.23;;
6997;SDS011;3539;47.982;12.238;2023-12-14T04:29:23;2.20;;;2.00;;
6997;SDS011;3539;47.982;12.238;2023-12-14T04:31:50;2.40;;;2.20;;
6997;SDS011;3539;47.982;12.238;2023-12-14T04:34:18;4.13;;;2.40;;
6997;SDS011;3539;47.982;12.238;2023-12-14T04:36:47;2.30;;;2.10;;
6997;SDS011;3539;47.982;12.238;2023-12-14T04:39:14;2.50;;;2.30;;
6997;SDS011;3539;47.982;12.238;2023-12-14T04:41:43;2.70;;;2.50;;
6997;SDS011;3539;47.982;12.238;2023-12-14T04:44:10;2.83;;;2.43;;
6997;SDS011;3539;47.982;12.238;2023-12-14T04:46:37;2.57;;;2.37;;
6997;SDS011;3539;47.982;12.238;2023-12-14T04:49:03;2.73;;;2.37;;
6997;SDS011;3539;47.982;12.238;2023-12-14T04:51:30;3.20;;;2.30;;
6997;SDS011;3539;47.982;12.238;2023-12-14T04:53:57;2.43;;;2.23;;
6997;SDS011;3539;47.982;12.238;2023-12-14T04:56:24;2.57;;;2.37;;
6997;SDS011;3539;47.982;12.238;2023-12-14T04:58:52;2.33;;;2.20;;
6997;SDS011;3539;47.982;12.238;2023-12-14T05:01:19;2.43;;;2.23;;
6997;SDS011;3539;47.982;12.238;2023-12-14T05:03:45;2.23;;;2.03;;
6997;SDS011;3539;47.982;12.238;2023-12-14T05:06:12;2.10;;;1.90;;
6997;SDS011;3539;47.982;12.238;2023-12-14T05:08:39;2.13;;;1.70;;
6997;SDS011;3539;47.982;12.238;2023-12-14T05:11:06;1.70;;;1.60;;
6997;SDS011;3539;47.982;12.238;2023-12-14T05:13:32;1.70;;;1.60;;
6997;SDS011;3539;47.982;12.238;2023-12-14T05:16:00;1.80;;;1.70;;
6997;SDS011;3539;47.982;12.238;2023-12-14T05:18:27;1.73;;;1.63;;
6997;SDS011;3539;47.982;12.238;2023-12-14T05:20:54;1.80;;;1.70;;
6997;SDS011;3539;47.982;12.238;2023-12-14T05:23:21;2.00;;;1.80;;
6997;SDS011;3539;47.982;12.238;2023-12-14T05:25:49;1.70;;;1.60;;
6997;SDS011;3539;47.982;12.238;2023-12-14T05:28:15;1.90;;;1.80;;
6997;SDS011;3539;47.982;12.238;2023-12-14T05:30:42;1.90;;;1.80;;
6997;SDS011;3539;47.982;12.238;2023-12-14T05:33:10;2.80;;;1.90;;
6997;SDS011;3539;47.982;12.238;2023-12-14T05:35:37;2.00;;;1.90;;
6997;SDS011;3539;47.982;12.238;2023-12-14T05:38:04;1.97;;;1.80;;
6997;SDS011;3539;47.982;12.238;2023-12-14T05:40:31;2.20;;;1.83;;
6997;SDS011;3539;47.982;12.238;2023-12-14T05:42:57;1.90;;;1.80;;
6997;SDS011;3539;47.982;12.238;2023-12-14T05:45:24;2.00;;;1.90;;
6997;SDS011;3539;47.982;12.238;2023-12-14T05:47:51;2.23;;;2.03;;
6997;SDS011;3539;47.982;12.238;2023-12-14T05:50:19;2.57;;;1.93;;
6997;SDS011;3539;47.982;12.238;2023-12-14T05:52:47;2.10;;;1.90;;
6997;SDS011;3539;47.982;12.238;2023-12-14T05:55:14;2.30;;;2.10;;
6997;SDS011;3539;47.982;12.238;2023-12-14T05:57:46;2.10;;;2.00;;
6997;SDS011;3539;47.982;12.238;2023-12-14T06:00:13;2.30;;;2.10;;
6997;SDS011;3539;47.982;12.238;2023-12-14T06:02:40;2.37;;;2.17;;
6997;SDS011;3539;47.982;12.238;2023-12-14T06:05:08;2.40;;;2.20;;
6997;SDS011;3539;47.982;12.238;2023-12-14T06:07:36;2.97;;;2.10;;
6997;SDS011;3539;47.982;12.238;2023-12-14T06:10:03;2.37;;;2.17;;
6997;SDS011;3539;47.982;12.238;2023-12-14T06:12:30;2.40;;;2.20;;
6997;SDS011;3539;47.982;12.238;2023-12-14T06:14:57;2.30;;;2.10;;
6997;SDS011;3539;47.982;12.238;2023-12-14T06:17:24;4.73;;;3.93;;
6997;SDS011;3539;47.982;12.238;2023-12-14T06:19:50;3.77;;;3.40;;
6997;SDS011;3539;47.982;12.238;2023-12-14T06:22:17;3.60;;;3.30;;
6997;SDS011;3539;47.982;12.238;2023-12-14T06:24:45;4.00;;;3.70;;
6997;SDS011;3539;47.982;12.238;2023-12-14T06:27:12;3.57;;;3.27;;
6997;SDS011;3539;47.982;12.238;2023-12-14T06:29:39;3.97;;;3.63;;
6997;SDS011;3539;47.982;12.238;2023-12-14T06:32:06;2.70;;;2.50;;
6997;SDS011;3539;47.982;12.238;2023-12-14T06:34:32;3.23;;;2.77;;
6997;SDS011;3539;47.982;12.238;2023-12-14T06:36:59;2.47;;;2.27;;
6997;SDS011;3539;47.982;12.238;2023-12-14T06:39:28;3.07;;;2.23;;
6997;SDS011;3539;47.982;12.238;2023-12-14T06:41:56;2.50;;;2.30;;
6997;SDS011;3539;47.982;12.238;2023-12-14T06:44:22;2.33;;;2.13;;
6997;SDS011;3539;47.982;12.238;2023-12-14T06:46:51;2.70;;;2.50;;
6997;SDS011;3539;47.982;12.238;2023-12-14T06:49:18;2.63;;;2.20;;
6997;SDS011;3539;47.982;12.238;2023-12-14T06:51:44;2.07;;;1.90;;
6997;SDS011;3539;47.982;12.238;2023-12-14T06:54:11;2.40;;;2.10;;
6997;SDS011;3539;47.982;12.238;2023-12-14T06:56:38;2.30;;;2.10;;
6997;SDS011;3539;47.982;12.238;2023-12-14T06:59:06;2.30;;;2.10;;
6997;SDS011;3539;47.982;12.238;2023-12-14T07:01:35;2.10;;;2.00;;
6997;SDS011;3539;47.982;12.238;2023-12-14T07:04:01;2.40;;;2.20;;
6997;SDS011;3539;47.982;12.238;2023-12-14T07:06:29;2.33;;;2.13;;
6997;SDS011;3539;47.982;12.238;2023-12-14T07:08:55;2.40;;;2.20;;
6997;SDS011;3539;47.982;12.238;2023-12-14T07:11:22;2.50;;;2.30;;
6997;SDS011;3539;47.982;12.238;2023-12-14T07:13:49;2.70;;;2.50;;
6997;SDS011;3539;47.982;12.238;2023-12-14T07:16:17;2.90;;;2.60;;
6997;SDS011;3539;47.982;12.238;2023-12-14T07:18:44;2.40;;;2.20;;
6997;SDS011;3539;47.982;12.238;2023-12-14T07:21:10;2.70;;;2.50;;
6997;SDS011;3539;47.982;12.238;2023-12-14T07:23:37;2.60;;;2.30;;
6997;SDS011;3539;47.982;12.238;2023-12-14T07:26:04;2.30;;;2.10;;
6997;SDS011;3539;47.982;12.238;2023-12-14T07:28:31;2.40;;;2.20;;
6997;SDS011;3539;47.982;12.238;2023-12-14T07:30:57;2.93;;;2.73;;
6997;SDS011;3539;47.982;12.238;2023-12-14T07:33:26;3.40;;;2.80;;
6997;SDS011;3539;47.982;12.238;2023-12-14T07:35:52;3.00;;;2.67;;
6997;SDS011;3539;47.982;12.238;2023-12-14T07:38:19;2.97;;;2.77;;
6997;SDS011;3539;47.982;12.238;2023-12-14T07:40:46;2.80;;;2.60;;
6997;SDS011;3539;47.982;12.238;2023-12-14T07:43:15;2.93;;;2.60;;
6997;SDS011;3539;47.982;12.238;2023-12-14T07:45:41;3.10;;;2.90;;
6997;SDS011;3539;47.982;12.238;2023-12-14T07:48:08;3.20;;;3.00;;
6997;SDS011;3539;47.982;12.238;2023-12-14T07:50:36;3.30;;;3.00;;
6997;SDS011;3539;47.982;12.238;2023-12-14T07:53:03;3.00;;;2.80;;
6997;SDS011;3539;47.982;12.238;2023-12-14T07:55:30;2.80;;;2.57;;
6997;SDS011;3539;47.982;12.238;2023-12-14T07:57:57;3.13;;;2.83;;
6997;SDS011;3539;47.982;12.238;2023-12-14T08:00:23;2.93;;;2.63;;
6997;SDS011;3539;47.982;12.238;2023-12-14T08:02:50;2.50;;;2.30;;
6997;SDS011;3539;47.982;12.238;2023-12-14T08:05:17;2.60;;;2.40;;
6997;SDS011;3539;47.982;12.238;2023-12-14T08:07:45;3.73;;;2.47;;
6997;SDS011;3539;47.982;12.238;2023-12-14T08:10:13;2.43;;;2.23;;
6997;SDS011;3539;47.982;12.238;2023-12-14T08:12:39;3.30;;;2.10;;
6997;SDS011;3539;47.982;12.238;2023-12-14T08:15:07;2.57;;;2.37;;
6997;SDS011;3539;47.982;12.238;2023-12-14T08:17:35;3.07;;;2.77;;
6997;SDS011;3539;47.982;12.238;2023-12-14T08:20:01;4.03;;;2.60;;
6997;SDS011;3539;47.982;12.238;2023-12-14T08:22:29;2.93;;;2.50;;
6997;SDS011;3539;47.982;12.238;2023-12-14T08:24:57;2.60;;;2.40;;
6997;SDS011;3539;47.982;12.238;2023-12-14T08:27:23;4.20;;;2.50;;
6997;SDS011;3539;47.982;12.238;2023-12-14T08:29:50;2.93;;;2.50;;
6997;SDS011;3539;47.982;12.238;2023-12-14T08:32:16;3.20;;;2.90;;
6997;SDS011;3539;47.982;12.238;2023-12-14T08:34:43;2.80;;;2.60;;
6997;SDS011;3539;47.982;12.238;2023-12-14T08:37:10;2.60;;;2.40;;
6997;SDS011;3539;47.982;12.238;2023-12-14T08:39:37;3.37;;;2.50;;
6997;SDS011;3539;47.982;12.238;2023-12-14T08:42:05;2.70;;;2.47;;
6997;SDS011;3539;47.982;12.238;2023-12-14T08:44:32;4.13;;;3.10;;
6997;SDS011;3539;47.982;12.238;2023-12-14T08:46:59;3.20;;;2.90;;
6997;SDS011;3539;47.982;12.238;2023-12-14T08:49:28;2.97;;;2.70;;
6997;SDS011;3539;47.982;12.238;2023-12-14T08:51:55;4.03;;;2.67;;
6997;SDS011;3539;47.982;12.238;2023-12-14T08:54:22;4.70;;;3.90;;
6997;SDS011;3539;47.982;12.238;2023-12-14T08:56:48;3.20;;;2.90;;
6997;SDS011;3539;47.982;12.238;2023-12-14T08:59:16;4.37;;;3.37;;
6997;SDS011;3539;47.982;12.238;2023-12-14T09:01:44;3.23;;;3.00;;
6997;SDS011;3539;47.982;12.238;2023-12-14T09:04:11;2.77;;;2.57;;
6997;SDS011;3539;47.982;12.238;2023-12-14T09:06:38;3.33;;;3.00;;
6997;SDS011;3539;47.982;12.238;2023-12-14T09:09:07;3.57;;;2.63;;
6997;SDS011;3539;47.982;12.238;2023-12-14T09:11:34;3.80;;;3.50;;
6997;SDS011;3539;47.982;12.238;2023-12-14T09:14:01;3.60;;;3.13;;
6997;SDS011;3539;47.982;12.238;2023-12-14T09:16:30;3.80;;;3.40;;
6997;SDS011;3539;47.982;12.238;2023-12-14T09:18:57;4.03;;;3.23;;
6997;SDS011;3539;47.982;12.238;2023-12-14T09:21:24;2.90;;;2.60;;
6997;SDS011;3539;47.982;12.238;2023-12-14T09:23:51;4.50;;;4.10;;
6997;SDS011;3539;47.982;12.238;2023-12-14T09:26:18;3.20;;;2.90;;
6997;SDS011;3539;47.982;12.238;2023-12-14T09:28:45;3.20;;;2.90;;
6997;SDS011;3539;47.982;12.238;2023-12-14T09:31:12;2.73;;;2.53;;
6997;SDS011;3539;47.982;12.238;2023-12-14T09:33:42;3.20;;;2.73;;
6997;SDS011;3539;47.982;12.238;2023-12-14T09:36:09;3.37;;;3.07;;
6997;SDS011;3539;47.982;12.238;2023-12-14T09:38:35;2.80;;;2.60;;
6997;SDS011;3539;47.982;12.238;2023-12-14T09:41:02;3.27;;;2.97;;
6997;SDS011;3539;47.982;12.238;2023-12-14T09:43:29;4.30;;;3.90;;
6997;SDS011;3539;47.982;12.238;2023-12-14T09:45:56;5.60;;;5.00;;
6997;SDS011;3539;47.982;12.238;2023-12-14T09:48:23;3.40;;;2.93;;
6997;SDS011;3539;47.982;12.238;2023-12-14T09:50:52;4.93;;;4.53;;
6997;SDS011;3539;47.982;12.238;2023-12-14T09:53:18;6.20;;;5.30;;
6997;SDS011;3539;47.982;12.238;2023-12-14T09:55:45;8.00;;;7.13;;
6997;SDS011;3539;47.982;12.238;2023-12-14T09:58:12;5.57;;;4.97;;
6997;SDS011;3539;47.982;12.238;2023-12-14T10:00:39;5.03;;;4.53;;
6997;SDS011;3539;47.982;12.238;2023-12-14T10:03:19;5.83;;;5.20;;
6997;SDS011;3539;47.982;12.238;2023-12-14T10:05:47;4.33;;;3.93;;
6997;SDS011;3539;47.982;12.238;2023-12-14T10:08:15;11.37;;;9.20;;
6997;SDS011;3539;47.982;12.238;2023-12-14T10:10:42;6.77;;;5.40;;
6997;SDS011;3539;47.982;12.238;2023-12-14T10:13:10;9.33;;;7.37;;
6997;SDS011;3539;47.982;12.238;2023-12-14T10:15:40;7.13;;;6.00;;
6997;SDS011;3539;47.982;12.238;2023-12-14T10:18:07;3.53;;;3.00;;
6997;SDS011;3539;47.982;12.238;2023-12-14T10:20:34;3.40;;;3.10;;
6997;SDS011;3539;47.982;12.238;2023-12-14T10:23:02;8.87;;;7.50;;
6997;SDS011;3539;47.982;12.238;2023-12-14T10:25:34;5.93;;;5.33;;
6997;SDS011;3539;47.982;12.238;2023-12-14T10:28:01;5.07;;;4.60;;
6997;SDS011;3539;47.982;12.238;2023-12-14T10:30:28;3.40;;;3.10;;
6997;SDS011;3539;47.982;12.238;2023-12-14T10:32:56;3.47;;;3.17;;
6997;SDS011;3539;47.982;12.238;2023-12-14T10:35:23;7.60;;;6.80;;
6997;SDS011;3539;47.982;12.238;2023-12-14T10:37:50;5.20;;;4.73;;
6997;SDS011;3539;47.982;12.238;2023-12-14T10:40:18;3.50;;;3.20;;
6997;SDS011;3539;47.982;12.238;2023-12-14T10:42:47;3.27;;;2.97;;
6997;SDS011;3539;47.982;12.238;2023-12-14T10:45:14;3.23;;;3.00;;
6997;SDS011;3539;47.982;12.238;2023-12-14T10:47:43;2.90;;;2.70;;
6997;SDS011;3539;47.982;12.238;2023-12-14T10:50:14;3.30;;;2.87;;
6997;SDS011;3539;47.982;12.238;2023-12-14T10:52:41;3.03;;;2.73;;
6997;SDS011;3539;47.982;12.238;2023-12-14T10:55:21;3.23;;;2.63;;
6997;SDS011;3539;47.982;12.238;2023-12-14T10:57:52;2.90;;;2.70;;
6997;SDS011;3539;47.982;12.238;2023-12-14T11:00:19;3.20;;;2.90;;
6997;SDS011;3539;47.982;12.238;2023-12-14T11:02:46;3.00;;;2.70;;
6997;SDS011;3539;47.982;12.238;2023-12-14T11:05:15;3.80;;;2.67;;
6997;SDS011;3539;47.982;12.238;2023-12-14T11:07:48;2.90;;;2.70;;
6997;SDS011;3539;47.982;12.238;2023-12-14T11:10:20;2.63;;;2.43;;
6997;SDS011;3539;47.982;12.238;2023-12-14T11:13:01;2.60;;;2.20;;
6997;SDS011;3539;47.982;12.238;2023-12-14T11:15:29;2.73;;;2.27;;
6997;SDS011;3539;47.982;12.238;2023-12-14T11:20:48;16.87;;;11.70;;
6997;SDS011;3539;47.982;12.238;2023-12-14T11:23:15;18.27;;;15.57;;
6997;SDS011;3539;47.982;12.238;2023-12-14T11:25:44;24.80;;;19.47;;
6997;SDS011;3539;47.982;12.238;2023-12-14T11:28:16;24.27;;;18.13;;
6997;SDS011;3539;47.982;12.238;2023-12-14T11:30:43;42.20;;;28.80;;
6997;SDS011;3539;47.982;12.238;2023-12-14T11:33:10;6.93;;;5.97;;
6997;SDS011;3539;47.982;12.238;2023-12-14T11:35:37;4.30;;;3.90;;
6997;SDS011;3539;47.982;12.238;2023-12-14T11:38:04;2.70;;;2.43;;
6997;SDS011;3539;47.982;12.238;2023-12-14T11:40:35;2.50;;;2.17;;
6997;SDS011;3539;47.982;12.238;2023-12-14T11:43:03;3.07;;;2.17;;
6997;SDS011;3539;47.982;12.238;2023-12-14T11:45:35;2.83;;;2.53;;
6997;SDS011;3539;47.982;12.238;2023-12-14T11:48:02;2.30;;;1.97;;
6997;SDS011;3539;47.982;12.238;2023-12-14T11:50:30;3.07;;;2.67;;
6997;SDS011;3539;47.982;12.238;2023-12-14T11:52:58;2.97;;;2.73;;
6997;SDS011;3539;47.982;12.238;2023-12-14T11:55:26;5.83;;;5.27;;
6997;SDS011;3539;47.982;12.238;2023-12-14T11:57:53;3.40;;;3.10;;
6997;SDS011;3539;47.982;12.238;2023-12-14T12:00:23;2.33;;;2.13;;
6997;SDS011;3539;47.982;12.238;2023-12-14T12:02:53;4.00;;;3.60;;
6997;SDS011;3539;47.982;12.238;2023-12-14T12:05:37;4.87;;;3.60;;
6997;SDS011;3539;47.982;12.238;2023-12-14T12:08:04;2.67;;;2.47;;
6997;SDS011;3539;47.982;12.238;2023-12-14T12:10:31;1.67;;;1.50;;
6997;SDS011;3539;47.982;12.238;2023-12-14T12:12:59;1.80;;;1.60;;
6997;SDS011;3539;47.982;12.238;2023-12-14T12:15:27;1.87;;;1.63;;
6997;SDS011;3539;47.982;12.238;2023-12-14T12:17:55;1.73;;;1.30;;
6997;SDS011;3539;47.982;12.238;2023-12-14T12:20:21;1.57;;;1.47;;
6997;SDS011;3539;47.982;12.238;2023-12-14T12:22:48;2.67;;;1.47;;
6997;SDS011;3539;47.982;12.238;2023-12-14T12:25:15;1.80;;;1.30;;
6997;SDS011;3539;47.982;12.238;2023-12-14T12:27:41;1.50;;;1.40;;
6997;SDS011;3539;47.982;12.238;2023-12-14T12:30:09;1.60;;;1.50;;
6997;SDS011;3539;47.982;12.238;2023-12-14T12:32:37;3.10;;;1.70;;
6997;SDS011;3539;47.982;12.238;2023-12-14T12:35:06;1.73;;;1.50;;
6997;SDS011;3539;47.982;12.238;2023-12-14T12:37:33;1.93;;;1.63;;
6997;SDS011;3539;47.982;12.238;2023-12-14T12:40:00;2.30;;;1.30;;
6997;SDS011;3539;47.982;12.238;2023-12-14T12:42:27;1.40;;;1.23;;
6997;SDS011;3539;47.982;12.238;2023-12-14T12:44:54;1.50;;;1.40;;
6997;SDS011;3539;47.982;12.238;2023-12-14T12:47:21;1.30;;;1.20;;
6997;SDS011;3539;47.982;12.238;2023-12-14T12:49:48;1.50;;;1.40;;
6997;SDS011;3539;47.982;12.238;2023-12-14T12:52:16;1.70;;;1.60;;
6997;SDS011;3539;47.982;12.238;2023-12-14T12:54:43;1.20;;;1.10;;
6997;SDS011;3539;47.982;12.238;2023-12-14T12:57:09;1.30;;;1.20;;
6997;SDS011;3539;47.982;12.238;2023-12-14T12:59:36;3.10;;;1.43;;
6997;SDS011;3539;47.982;12.238;2023-12-14T13:02:03;1.30;;;1.20;;
6997;SDS011;3539;47.982;12.238;2023-12-14T13:04:30;2.60;;;1.40;;
6997;SDS011;3539;47.982;12.238;2023-12-14T13:06:57;1.50;;;1.40;;
6997;SDS011;3539;47.982;12.238;2023-12-14T13:09:28;1.40;;;1.30;;
6997;SDS011;3539;47.982;12.238;2023-12-14T13:11:55;3.13;;;2.60;;
6997;SDS011;3539;47.982;12.238;2023-12-14T13:14:21;2.30;;;2.10;;
6997;SDS011;3539;47.982;12.238;2023-12-14T13:16:48;1.90;;;1.70;;
6997;SDS011;3539;47.982;12.238;2023-12-14T13:19:15;1.80;;;1.50;;
6997;SDS011;3539;47.982;12.238;2023-12-14T13:21:42;1.93;;;1.63;;
6997;SDS011;3539;47.982;12.238;2023-12-14T13:24:09;1.83;;;1.67;;
6997;SDS011;3539;47.982;12.238;2023-12-14T13:26:37;1.70;;;1.60;;
6997;SDS011;3539;47.982;12.238;2023-12-14T13:29:04;1.60;;;1.50;;
6997;SDS011;3539;47.982;12.238;2023-12-14T13:31:31;3.40;;;1.60;;
6997;SDS011;3539;47.982;12.238;2023-12-14T13:33:57;1.50;;;1.40;;
6997;SDS011;3539;47.982;12.238;2023-12-14T13:36:24;2.10;;;1.67;;
6997;SDS011;3539;47.982;12.238;2023-12-14T13:38:51;1.87;;;1.67;;
6997;SDS011;3539;47.982;12.238;2023-12-14T13:41:18;2.20;;;2.00;;
6997;SDS011;3539;47.982;12.238;2023-12-14T13:43:46;11.63;;;8.27;;
6997;SDS011;3539;47.982;12.238;2023-12-14T13:46:12;22.33;;;13.33;;
6997;SDS011;3539;47.982;12.238;2023-12-14T13:48:39;16.00;;;9.40;;
6997;SDS011;3539;47.982;12.238;2023-12-14T13:51:07;10.40;;;6.77;;
6997;SDS011;3539;47.982;12.238;2023-12-14T13:53:33;2.97;;;2.67;;
6997;SDS011;3539;47.982;12.238;2023-12-14T13:56:00;2.67;;;2.40;;
6997;SDS011;3539;47.982;12.238;2023-12-14T13:58:28;2.20;;;2.00;;
6997;SDS011;3539;47.982;12.238;2023-12-14T14:00:56;2.37;;;2.17;;
6997;SDS011;3539;47.982;12.238;2023-12-14T14:03:23;2.33;;;2.13;;
6997;SDS011;3539;47.982;12.238;2023-12-14T14:05:51;2.57;;;2.23;;
6997;SDS011;3539;47.982;12.238;2023-12-14T14:08:18;3.30;;;2.57;;
6997;SDS011;3539;47.982;12.238;2023-12-14T14:10:45;5.93;;;4.30;;
6997;SDS011;3539;47.982;12.238;2023-12-14T14:13:11;5.17;;;4.13;;
6997;SDS011;3539;47.982;12.238;2023-12-14T14:15:38;17.70;;;12.03;;
6997;SDS011;3539;47.982;12.238;2023-12-14T14:18:06;11.20;;;8.30;;
6997;SDS011;3539;47.982;12.238;2023-12-14T14:20:33;10.50;;;7.87;;
6997;SDS011;3539;47.982;12.238;2023-12-14T14:23:00;6.60;;;4.83;;
6997;SDS011;3539;47.982;12.238;2023-12-14T14:25:27;3.70;;;3.07;;
6997;SDS011;3539;47.982;12.238;2023-12-14T14:27:53;4.73;;;3.20;;
6997;SDS011;3539;47.982;12.238;2023-12-14T14:30:20;6.10;;;4.90;;
6997;SDS011;3539;47.982;12.238;2023-12-14T14:32:47;3.10;;;2.40;;
6997;SDS011;3539;47.982;12.238;2023-12-14T14:35:15;3.50;;;2.80;;
6997;SDS011;3539;47.982;12.238;2023-12-14T14:37:42;2.23;;;2.03;;
6997;SDS011;3539;47.982;12.238;2023-12-14T14:40:10;3.83;;;2.83;;
6997;SDS011;3539;47.982;12.238;2023-12-14T14:42:38;4.80;;;3.90;;
6997;SDS011;3539;47.982;12.238;2023-12-14T14:45:05;5.67;;;4.77;;
6997;SDS011;3539;47.982;12.238;2023-12-14T14:47:33;23.97;;;15.93;;
6997;SDS011;3539;47.982;12.238;2023-12-14T14:49:59;6.30;;;5.17;;
6997;SDS011;3539;47.982;12.238;2023-12-14T14:52:30;6.67;;;6.00;;
6997;SDS011;3539;47.982;12.238;2023-12-14T14:54:57;2.20;;;2.00;;
6997;SDS011;3539;47.982;12.238;2023-12-14T14:57:24;2.57;;;1.90;;
6997;SDS011;3539;47.982;12.238;2023-12-14T14:59:51;2.40;;;2.20;;
6997;SDS011;3539;47.982;12.238;2023-12-14T15:02:18;2.40;;;2.20;;
6997;SDS011;3539;47.982;12.238;2023-12-14T15:04:45;3.57;;;2.17;;